LHBPLHSM

Guest
Details From LHBP - Ferihegy (Budapest)
To LHSM - BALATON
Flight Number -
Tags decoded
Created
Modified
Stats Distance 98 nm / 181 km
Max Altitude 0 ft / 0 m
Waypoints 3
Social Downloads 2
Likes 0
Share VATSIM

Download

Looking for another format? Having issues loading an existing format? Contact us
Advertisement - Login to hide

Notes

Requested: LHBP PUSTA LHSM

Route

LHBP PUSTA LHSM

ID Type Via Altitude Latitude Longitude Leg Dist Tot Dist Heading (true) Name
O LHBP APT - 0 ft / 0 m 47.43529˚ 19.26579˚ - 0 nm - Ferihegy (Budapest)
PUSTA FIX - 0 ft / 0 m 47.15222˚ 18.74232˚ 27 nm 27 nm 232° / 231° -
O LHSM APT - 0 ft / 0 m 46.68829˚ 17.15766˚ 70 nm 97 nm 247° / 246° BALATON

Altitude Profile

Advertisement - Login to hide

LHBP

Details ICAO LHBP (BUD)
Name Ferihegy (Budapest)
Region Hungary
Timezone Europe/Budapest (UTC+1.0)
Stats Elevation 495 ft / 151 m (AMSL)
Location 47.435292° 19.265792°
Runways 3
Magnetic Variation 4.763° E

METAR

LHBP 131500Z VRB03KT CAVOK 03/M02 Q1016 NOSIG

Decode

TAF

TAF TAF LHBP 131115Z 1312/1412 29007KT CAVOK BECMG 1313/1315 VRB03KT BECMG 1323/1401 17010G20KT TEMPO 1401/1409 BKN012 TEMPO 1406/1412 -RA BECMG 1409/1411 24012G22KT

Decode

Departure Runways

ID Width Length Bearing (true) Bearing (mag) Surface Threshold Offset Overrun Length
13 250 ft / 76 m 6,000 ft / 1,829 m 132.54° 127.78° Unknown 0 ft / 0 m 0 ft / 0 m
13L 196 ft / 60 m 12,487 ft / 3,806 m 132.54° 127.78° Asphalt 0 ft / 0 m 200 ft / 61 m
13R 196 ft / 60 m 10,145 ft / 3,092 m 132.49° 127.73° Asphalt 0 ft / 0 m 197 ft / 60 m
31 250 ft / 76 m 6,000 ft / 1,829 m 312.55° 307.79° Unknown 0 ft / 0 m 0 ft / 0 m
31L 196 ft / 60 m 10,145 ft / 3,092 m 312.51° 307.75° Asphalt 0 ft / 0 m 197 ft / 60 m
31R 196 ft / 60 m 12,487 ft / 3,806 m 312.56° 307.80° Asphalt 0 ft / 0 m 197 ft / 60 m

LHSM

Details ICAO LHSM (SOB)
Name BALATON
Region Hungary
Timezone Europe/Budapest (UTC+1.0)
Stats Elevation 408 ft / 124 m (AMSL)
Location 46.688289° 17.157658°
Runways 2
Magnetic Variation 4.257° E

METAR

LHSM 131445Z 24002KT 9999 FEW020 04/01 Q1018 NOSIG

Decode

TAF

Not found

Destination Runways

ID Width Length Bearing (true) Bearing (mag) Surface Threshold Offset Overrun Length
16 197 ft / 60 m 8,215 ft / 2,504 m 165.38° 161.12° Concrete 0 ft / 0 m 0 ft / 0 m
17R 212 ft / 65 m 3,101 ft / 945 m 165.17° 160.91° Grass 0 ft / 0 m 0 ft / 0 m
34 197 ft / 60 m 8,215 ft / 2,504 m 345.38° 341.12° Concrete 0 ft / 0 m 0 ft / 0 m
35L 212 ft / 65 m 3,101 ft / 945 m 345.17° 340.91° Grass 0 ft / 0 m 0 ft / 0 m

Approach Navaids

Runway Type Ident Frequency Range Bearing (true) Bearing (mag) Slope Elevation
16 Localiser SMK 108.75 MHz 18 nm / 33 km 165.40° 161.15° - 408 ft / 124 m (AMSL)
16 Glidescope SMK 108.75 MHz 10 nm / 19 km 165.38° 161.12° 3.00° 408 ft / 124 m (AMSL)
16 DME SMK 108.75 MHz 18 nm / 33 km - - - 408 ft / 124 m (AMSL)

Popular Alternatives